sensor_id;sensor_type;location;lat;lon;timestamp;P1;durP1;ratioP1;P2;durP2;ratioP2
43319;SDS011;28914;48.722;9.332;2024-03-17T00:04:30;4.93;;;4.50;;
43319;SDS011;28914;48.722;9.332;2024-03-17T00:09:50;7.70;;;6.60;;
43319;SDS011;28914;48.722;9.332;2024-03-17T00:15:10;6.07;;;5.30;;
43319;SDS011;28914;48.722;9.332;2024-03-17T00:20:29;7.60;;;6.80;;
43319;SDS011;28914;48.722;9.332;2024-03-17T00:25:48;9.10;;;7.57;;
43319;SDS011;28914;48.722;9.332;2024-03-17T00:31:09;7.50;;;6.80;;
43319;SDS011;28914;48.722;9.332;2024-03-17T00:36:28;10.30;;;9.10;;
43319;SDS011;28914;48.722;9.332;2024-03-17T00:41:48;8.63;;;7.83;;
43319;SDS011;28914;48.722;9.332;2024-03-17T00:47:08;7.27;;;6.57;;
43319;SDS011;28914;48.722;9.332;2024-03-17T00:52:27;7.00;;;6.40;;
43319;SDS011;28914;48.722;9.332;2024-03-17T00:57:46;7.00;;;6.40;;
43319;SDS011;28914;48.722;9.332;2024-03-17T01:03:05;8.70;;;6.93;;
43319;SDS011;28914;48.722;9.332;2024-03-17T01:08:24;5.53;;;5.13;;
43319;SDS011;28914;48.722;9.332;2024-03-17T01:13:44;5.87;;;5.37;;
43319;SDS011;28914;48.722;9.332;2024-03-17T01:19:06;7.67;;;5.70;;
43319;SDS011;28914;48.722;9.332;2024-03-17T01:24:25;6.40;;;5.63;;
43319;SDS011;28914;48.722;9.332;2024-03-17T01:29:50;5.90;;;5.40;;
43319;SDS011;28914;48.722;9.332;2024-03-17T01:35:09;6.30;;;5.73;;
43319;SDS011;28914;48.722;9.332;2024-03-17T01:40:28;6.10;;;5.60;;
43319;SDS011;28914;48.722;9.332;2024-03-17T01:45:48;6.23;;;5.63;;
43319;SDS011;28914;48.722;9.332;2024-03-17T01:51:07;6.13;;;5.63;;
43319;SDS011;28914;48.722;9.332;2024-03-17T01:56:29;5.73;;;5.20;;
43319;SDS011;28914;48.722;9.332;2024-03-17T02:01:48;6.10;;;5.60;;
43319;SDS011;28914;48.722;9.332;2024-03-17T02:07:07;7.00;;;6.30;;
43319;SDS011;28914;48.722;9.332;2024-03-17T02:12:27;6.20;;;5.70;;
43319;SDS011;28914;48.722;9.332;2024-03-17T02:17:46;5.83;;;5.27;;
43319;SDS011;28914;48.722;9.332;2024-03-17T02:23:05;5.87;;;5.30;;
43319;SDS011;28914;48.722;9.332;2024-03-17T02:28:25;6.67;;;6.07;;
43319;SDS011;28914;48.722;9.332;2024-03-17T02:33:44;5.73;;;5.13;;
43319;SDS011;28914;48.722;9.332;2024-03-17T02:39:04;6.07;;;5.57;;
43319;SDS011;28914;48.722;9.332;2024-03-17T02:44:42;6.47;;;5.87;;
43319;SDS011;28914;48.722;9.332;2024-03-17T02:50:01;5.97;;;5.37;;
43319;SDS011;28914;48.722;9.332;2024-03-17T02:55:20;6.23;;;5.63;;
43319;SDS011;28914;48.722;9.332;2024-03-17T03:00:39;5.33;;;4.83;;
43319;SDS011;28914;48.722;9.332;2024-03-17T03:05:59;6.30;;;5.53;;
43319;SDS011;28914;48.722;9.332;2024-03-17T03:11:22;6.00;;;5.40;;
43319;SDS011;28914;48.722;9.332;2024-03-17T03:16:41;6.73;;;6.13;;
43319;SDS011;28914;48.722;9.332;2024-03-17T03:22:01;7.23;;;5.50;;
43319;SDS011;28914;48.722;9.332;2024-03-17T03:27:20;6.10;;;4.80;;
43319;SDS011;28914;48.722;9.332;2024-03-17T03:32:39;6.40;;;5.80;;
43319;SDS011;28914;48.722;9.332;2024-03-17T03:37:58;6.37;;;5.77;;
43319;SDS011;28914;48.722;9.332;2024-03-17T03:43:17;5.37;;;4.87;;
43319;SDS011;28914;48.722;9.332;2024-03-17T03:48:37;6.00;;;5.40;;
43319;SDS011;28914;48.722;9.332;2024-03-17T03:53:56;5.77;;;5.27;;
43319;SDS011;28914;48.722;9.332;2024-03-17T03:59:15;6.07;;;5.53;;
43319;SDS011;28914;48.722;9.332;2024-03-17T04:04:34;5.93;;;5.43;;
43319;SDS011;28914;48.722;9.332;2024-03-17T04:09:54;5.83;;;5.33;;
43319;SDS011;28914;48.722;9.332;2024-03-17T04:15:13;6.80;;;6.20;;
43319;SDS011;28914;48.722;9.332;2024-03-17T04:20:32;7.07;;;6.10;;
43319;SDS011;28914;48.722;9.332;2024-03-17T04:25:52;7.30;;;5.13;;
43319;SDS011;28914;48.722;9.332;2024-03-17T04:31:12;6.07;;;5.43;;
43319;SDS011;28914;48.722;9.332;2024-03-17T04:36:31;5.40;;;4.90;;
43319;SDS011;28914;48.722;9.332;2024-03-17T04:41:50;7.23;;;5.40;;
43319;SDS011;28914;48.722;9.332;2024-03-17T04:47:10;5.67;;;5.10;;
43319;SDS011;28914;48.722;9.332;2024-03-17T04:52:29;5.40;;;4.97;;
43319;SDS011;28914;48.722;9.332;2024-03-17T04:57:49;5.63;;;5.13;;
43319;SDS011;28914;48.722;9.332;2024-03-17T05:03:08;5.67;;;5.17;;
43319;SDS011;28914;48.722;9.332;2024-03-17T05:08:28;6.03;;;5.10;;
43319;SDS011;28914;48.722;9.332;2024-03-17T05:13:48;5.43;;;4.93;;
43319;SDS011;28914;48.722;9.332;2024-03-17T05:19:08;6.23;;;5.63;;
43319;SDS011;28914;48.722;9.332;2024-03-17T05:24:28;7.00;;;5.97;;
43319;SDS011;28914;48.722;9.332;2024-03-17T05:29:47;6.17;;;5.67;;
43319;SDS011;28914;48.722;9.332;2024-03-17T05:35:06;6.30;;;5.70;;
43319;SDS011;28914;48.722;9.332;2024-03-17T05:40:25;5.60;;;5.20;;
43319;SDS011;28914;48.722;9.332;2024-03-17T05:45:44;5.93;;;5.33;;
43319;SDS011;28914;48.722;9.332;2024-03-17T05:51:07;5.33;;;4.87;;
43319;SDS011;28914;48.722;9.332;2024-03-17T05:56:27;5.70;;;5.20;;
43319;SDS011;28914;48.722;9.332;2024-03-17T06:01:46;5.93;;;5.27;;
43319;SDS011;28914;48.722;9.332;2024-03-17T06:07:06;5.20;;;4.73;;
43319;SDS011;28914;48.722;9.332;2024-03-17T06:12:25;5.90;;;5.40;;
43319;SDS011;28914;48.722;9.332;2024-03-17T06:17:44;6.47;;;5.87;;
43319;SDS011;28914;48.722;9.332;2024-03-17T06:23:03;7.00;;;5.80;;
43319;SDS011;28914;48.722;9.332;2024-03-17T06:28:23;9.00;;;8.20;;
43319;SDS011;28914;48.722;9.332;2024-03-17T06:33:43;9.80;;;8.90;;
43319;SDS011;28914;48.722;9.332;2024-03-17T06:39:02;8.27;;;7.50;;
43319;SDS011;28914;48.722;9.332;2024-03-17T06:44:21;7.43;;;6.73;;
43319;SDS011;28914;48.722;9.332;2024-03-17T06:49:45;6.47;;;5.90;;
43319;SDS011;28914;48.722;9.332;2024-03-17T06:55:05;6.47;;;5.90;;
43319;SDS011;28914;48.722;9.332;2024-03-17T07:00:25;6.00;;;5.40;;
43319;SDS011;28914;48.722;9.332;2024-03-17T07:05:50;5.37;;;4.33;;
43319;SDS011;28914;48.722;9.332;2024-03-17T07:11:21;7.13;;;5.70;;
43319;SDS011;28914;48.722;9.332;2024-03-17T07:16:42;6.17;;;5.57;;
43319;SDS011;28914;48.722;9.332;2024-03-17T07:22:01;5.73;;;5.00;;
43319;SDS011;28914;48.722;9.332;2024-03-17T07:27:22;5.67;;;5.17;;
43319;SDS011;28914;48.722;9.332;2024-03-17T07:32:42;5.50;;;5.00;;
43319;SDS011;28914;48.722;9.332;2024-03-17T07:38:01;6.33;;;5.30;;
43319;SDS011;28914;48.722;9.332;2024-03-17T07:43:20;5.73;;;5.23;;
43319;SDS011;28914;48.722;9.332;2024-03-17T07:48:40;6.30;;;5.70;;
43319;SDS011;28914;48.722;9.332;2024-03-17T07:54:00;5.27;;;4.77;;
43319;SDS011;28914;48.722;9.332;2024-03-17T07:59:19;5.73;;;5.20;;
43319;SDS011;28914;48.722;9.332;2024-03-17T08:04:39;5.13;;;4.67;;
43319;SDS011;28914;48.722;9.332;2024-03-17T08:09:58;5.43;;;5.03;;
43319;SDS011;28914;48.722;9.332;2024-03-17T08:15:18;5.07;;;4.67;;
43319;SDS011;28914;48.722;9.332;2024-03-17T08:20:41;4.87;;;4.40;;
43319;SDS011;28914;48.722;9.332;2024-03-17T08:26:05;6.10;;;5.40;;
43319;SDS011;28914;48.722;9.332;2024-03-17T08:31:24;5.93;;;5.30;;
43319;SDS011;28914;48.722;9.332;2024-03-17T08:36:43;5.43;;;4.93;;
43319;SDS011;28914;48.722;9.332;2024-03-17T08:42:03;7.03;;;5.17;;
43319;SDS011;28914;48.722;9.332;2024-03-17T08:47:22;4.97;;;4.47;;
43319;SDS011;28914;48.722;9.332;2024-03-17T08:52:41;5.20;;;4.27;;
43319;SDS011;28914;48.722;9.332;2024-03-17T08:58:00;4.70;;;3.60;;
43319;SDS011;28914;48.722;9.332;2024-03-17T09:03:19;4.30;;;3.90;;
43319;SDS011;28914;48.722;9.332;2024-03-17T09:08:39;4.67;;;4.27;;
43319;SDS011;28914;48.722;9.332;2024-03-17T09:13:58;3.50;;;3.20;;
43319;SDS011;28914;48.722;9.332;2024-03-17T09:19:18;3.33;;;3.03;;
43319;SDS011;28914;48.722;9.332;2024-03-17T09:24:37;3.33;;;3.03;;
43319;SDS011;28914;48.722;9.332;2024-03-17T09:29:56;3.70;;;3.40;;
43319;SDS011;28914;48.722;9.332;2024-03-17T09:35:17;3.00;;;2.70;;
43319;SDS011;28914;48.722;9.332;2024-03-17T09:40:36;3.17;;;2.33;;
43319;SDS011;28914;48.722;9.332;2024-03-17T09:45:56;2.20;;;2.00;;
43319;SDS011;28914;48.722;9.332;2024-03-17T09:51:20;3.70;;;2.63;;
43319;SDS011;28914;48.722;9.332;2024-03-17T09:56:39;3.47;;;1.93;;
43319;SDS011;28914;48.722;9.332;2024-03-17T10:01:59;2.00;;;1.57;;
43319;SDS011;28914;48.722;9.332;2024-03-17T10:07:30;2.00;;;1.60;;
43319;SDS011;28914;48.722;9.332;2024-03-17T10:12:56;2.13;;;1.63;;
43319;SDS011;28914;48.722;9.332;2024-03-17T10:18:22;3.20;;;2.03;;
43319;SDS011;28914;48.722;9.332;2024-03-17T10:23:41;3.90;;;2.87;;
43319;SDS011;28914;48.722;9.332;2024-03-17T10:29:01;2.50;;;1.93;;
43319;SDS011;28914;48.722;9.332;2024-03-17T10:34:21;2.20;;;1.80;;
43319;SDS011;28914;48.722;9.332;2024-03-17T10:39:43;2.03;;;1.87;;
43319;SDS011;28914;48.722;9.332;2024-03-17T10:45:04;5.00;;;1.90;;
43319;SDS011;28914;48.722;9.332;2024-03-17T10:50:29;3.50;;;1.80;;
43319;SDS011;28914;48.722;9.332;2024-03-17T10:55:50;2.90;;;1.60;;
43319;SDS011;28914;48.722;9.332;2024-03-17T11:01:11;1.60;;;1.10;;
43319;SDS011;28914;48.722;9.332;2024-03-17T11:06:31;3.70;;;1.70;;
43319;SDS011;28914;48.722;9.332;2024-03-17T11:11:51;1.43;;;1.10;;
43319;SDS011;28914;48.722;9.332;2024-03-17T11:17:17;2.50;;;1.33;;
43319;SDS011;28914;48.722;9.332;2024-03-17T11:22:48;1.87;;;1.10;;
43319;SDS011;28914;48.722;9.332;2024-03-17T11:28:09;2.50;;;1.67;;
43319;SDS011;28914;48.722;9.332;2024-03-17T11:44:35;1.80;;;1.20;;
43319;SDS011;28914;48.722;9.332;2024-03-17T11:49:55;6.23;;;4.43;;
43319;SDS011;28914;48.722;9.332;2024-03-17T11:55:16;2.83;;;1.53;;
43319;SDS011;28914;48.722;9.332;2024-03-17T12:00:37;1.90;;;1.03;;
43319;SDS011;28914;48.722;9.332;2024-03-17T12:05:56;1.37;;;1.00;;
43319;SDS011;28914;48.722;9.332;2024-03-17T12:11:18;1.80;;;1.43;;
43319;SDS011;28914;48.722;9.332;2024-03-17T12:16:37;2.90;;;1.60;;
43319;SDS011;28914;48.722;9.332;2024-03-17T12:21:59;3.10;;;1.27;;
43319;SDS011;28914;48.722;9.332;2024-03-17T12:27:23;2.20;;;1.63;;
43319;SDS011;28914;48.722;9.332;2024-03-17T12:32:43;2.30;;;1.40;;
43319;SDS011;28914;48.722;9.332;2024-03-17T12:38:02;2.13;;;1.37;;
43319;SDS011;28914;48.722;9.332;2024-03-17T12:43:47;2.60;;;1.40;;
43319;SDS011;28914;48.722;9.332;2024-03-17T12:49:08;3.07;;;1.67;;
43319;SDS011;28914;48.722;9.332;2024-03-17T12:54:28;2.37;;;1.20;;
43319;SDS011;28914;48.722;9.332;2024-03-17T12:59:48;1.60;;;1.40;;
43319;SDS011;28914;48.722;9.332;2024-03-17T13:05:27;1.53;;;1.20;;
43319;SDS011;28914;48.722;9.332;2024-03-17T13:10:46;4.47;;;2.40;;
43319;SDS011;28914;48.722;9.332;2024-03-17T13:16:06;2.43;;;1.50;;
43319;SDS011;28914;48.722;9.332;2024-03-17T13:21:27;2.40;;;1.60;;
43319;SDS011;28914;48.722;9.332;2024-03-17T13:26:46;2.60;;;1.50;;
43319;SDS011;28914;48.722;9.332;2024-03-17T13:32:07;2.97;;;1.47;;
43319;SDS011;28914;48.722;9.332;2024-03-17T13:37:26;1.97;;;1.20;;
43319;SDS011;28914;48.722;9.332;2024-03-17T13:42:46;2.03;;;1.30;;
43319;SDS011;28914;48.722;9.332;2024-03-17T13:48:06;4.00;;;1.27;;
43319;SDS011;28914;48.722;9.332;2024-03-17T13:53:29;1.20;;;1.00;;
43319;SDS011;28914;48.722;9.332;2024-03-17T13:58:51;2.17;;;1.23;;
43319;SDS011;28914;48.722;9.332;2024-03-17T14:04:16;1.73;;;1.30;;
43319;SDS011;28914;48.722;9.332;2024-03-17T14:09:36;1.07;;;0.80;;
43319;SDS011;28914;48.722;9.332;2024-03-17T14:14:55;1.53;;;0.93;;
43319;SDS011;28914;48.722;9.332;2024-03-17T14:20:14;1.83;;;1.13;;
43319;SDS011;28914;48.722;9.332;2024-03-17T14:25:36;1.70;;;1.30;;
43319;SDS011;28914;48.722;9.332;2024-03-17T14:30:55;1.40;;;1.00;;
43319;SDS011;28914;48.722;9.332;2024-03-17T14:36:15;3.50;;;2.00;;
43319;SDS011;28914;48.722;9.332;2024-03-17T14:41:36;2.53;;;1.90;;
43319;SDS011;28914;48.722;9.332;2024-03-17T14:46:55;4.20;;;1.47;;
43319;SDS011;28914;48.722;9.332;2024-03-17T14:52:14;1.53;;;0.87;;
43319;SDS011;28914;48.722;9.332;2024-03-17T14:57:34;1.33;;;1.03;;
43319;SDS011;28914;48.722;9.332;2024-03-17T15:02:53;2.63;;;1.50;;
43319;SDS011;28914;48.722;9.332;2024-03-17T15:08:12;1.80;;;1.63;;
43319;SDS011;28914;48.722;9.332;2024-03-17T15:13:31;1.53;;;1.37;;
43319;SDS011;28914;48.722;9.332;2024-03-17T15:18:51;2.03;;;1.30;;
43319;SDS011;28914;48.722;9.332;2024-03-17T15:24:10;2.50;;;1.30;;
43319;SDS011;28914;48.722;9.332;2024-03-17T15:29:29;3.10;;;1.20;;
43319;SDS011;28914;48.722;9.332;2024-03-17T15:34:48;4.50;;;1.10;;
43319;SDS011;28914;48.722;9.332;2024-03-17T15:40:09;1.17;;;0.93;;
43319;SDS011;28914;48.722;9.332;2024-03-17T15:45:35;1.60;;;1.10;;
43319;SDS011;28914;48.722;9.332;2024-03-17T15:50:57;2.03;;;1.13;;
43319;SDS011;28914;48.722;9.332;2024-03-17T15:56:16;2.20;;;1.10;;
43319;SDS011;28914;48.722;9.332;2024-03-17T16:01:36;1.90;;;1.20;;
43319;SDS011;28914;48.722;9.332;2024-03-17T16:06:55;2.30;;;1.13;;
43319;SDS011;28914;48.722;9.332;2024-03-17T16:12:14;1.93;;;1.20;;
43319;SDS011;28914;48.722;9.332;2024-03-17T16:17:33;2.10;;;1.37;;
43319;SDS011;28914;48.722;9.332;2024-03-17T16:22:56;1.20;;;0.90;;
43319;SDS011;28914;48.722;9.332;2024-03-17T16:28:17;1.50;;;1.00;;
43319;SDS011;28914;48.722;9.332;2024-03-17T16:33:39;3.10;;;1.47;;
43319;SDS011;28914;48.722;9.332;2024-03-17T16:38:58;2.83;;;1.57;;
43319;SDS011;28914;48.722;9.332;2024-03-17T16:49:46;1.80;;;1.10;;
43319;SDS011;28914;48.722;9.332;2024-03-17T16:55:05;3.17;;;2.07;;
43319;SDS011;28914;48.722;9.332;2024-03-17T17:00:25;2.03;;;1.67;;
43319;SDS011;28914;48.722;9.332;2024-03-17T17:05:44;1.70;;;1.47;;
43319;SDS011;28914;48.722;9.332;2024-03-17T17:11:04;3.60;;;1.20;;
43319;SDS011;28914;48.722;9.332;2024-03-17T17:16:23;1.87;;;1.40;;
43319;SDS011;28914;48.722;9.332;2024-03-17T17:21:42;1.63;;;1.50;;
43319;SDS011;28914;48.722;9.332;2024-03-17T17:27:08;1.90;;;1.20;;
43319;SDS011;28914;48.722;9.332;2024-03-17T17:32:28;3.93;;;1.50;;
43319;SDS011;28914;48.722;9.332;2024-03-17T17:37:47;4.83;;;1.50;;
43319;SDS011;28914;48.722;9.332;2024-03-17T17:43:07;2.60;;;1.70;;
43319;SDS011;28914;48.722;9.332;2024-03-17T17:48:26;2.50;;;1.77;;
43319;SDS011;28914;48.722;9.332;2024-03-17T17:53:46;2.80;;;1.90;;
43319;SDS011;28914;48.722;9.332;2024-03-17T17:59:07;2.30;;;1.40;;
43319;SDS011;28914;48.722;9.332;2024-03-17T18:04:28;1.87;;;1.60;;
43319;SDS011;28914;48.722;9.332;2024-03-17T18:09:47;2.77;;;1.80;;
43319;SDS011;28914;48.722;9.332;2024-03-17T18:15:06;2.10;;;1.70;;
43319;SDS011;28914;48.722;9.332;2024-03-17T18:20:26;2.53;;;1.77;;
43319;SDS011;28914;48.722;9.332;2024-03-17T18:25:47;2.73;;;2.00;;
43319;SDS011;28914;48.722;9.332;2024-03-17T18:31:07;2.20;;;1.77;;
43319;SDS011;28914;48.722;9.332;2024-03-17T18:36:26;2.90;;;1.83;;
43319;SDS011;28914;48.722;9.332;2024-03-17T18:41:45;3.30;;;1.80;;
43319;SDS011;28914;48.722;9.332;2024-03-17T18:47:05;4.27;;;2.50;;
43319;SDS011;28914;48.722;9.332;2024-03-17T18:52:24;3.20;;;2.80;;
43319;SDS011;28914;48.722;9.332;2024-03-17T18:57:44;3.60;;;2.47;;
43319;SDS011;28914;48.722;9.332;2024-03-17T19:03:03;2.90;;;2.20;;
43319;SDS011;28914;48.722;9.332;2024-03-17T19:08:23;2.87;;;2.20;;
43319;SDS011;28914;48.722;9.332;2024-03-17T19:13:43;5.10;;;1.87;;
43319;SDS011;28914;48.722;9.332;2024-03-17T19:19:02;2.10;;;1.77;;
43319;SDS011;28914;48.722;9.332;2024-03-17T19:24:21;2.40;;;2.10;;
43319;SDS011;28914;48.722;9.332;2024-03-17T19:29:41;2.83;;;2.60;;
43319;SDS011;28914;48.722;9.332;2024-03-17T19:35:00;2.87;;;2.23;;
43319;SDS011;28914;48.722;9.332;2024-03-17T19:40:19;3.03;;;2.40;;
43319;SDS011;28914;48.722;9.332;2024-03-17T19:45:39;3.10;;;1.90;;
43319;SDS011;28914;48.722;9.332;2024-03-17T19:51:04;4.30;;;3.10;;
43319;SDS011;28914;48.722;9.332;2024-03-17T19:56:28;2.70;;;2.43;;
43319;SDS011;28914;48.722;9.332;2024-03-17T20:01:47;4.30;;;2.23;;
43319;SDS011;28914;48.722;9.332;2024-03-17T20:07:06;5.00;;;3.13;;
43319;SDS011;28914;48.722;9.332;2024-03-17T20:12:26;3.67;;;2.70;;
43319;SDS011;28914;48.722;9.332;2024-03-17T20:17:45;3.97;;;2.03;;
43319;SDS011;28914;48.722;9.332;2024-03-17T20:23:04;3.60;;;2.93;;
43319;SDS011;28914;48.722;9.332;2024-03-17T20:28:23;3.10;;;1.97;;
43319;SDS011;28914;48.722;9.332;2024-03-17T20:33:43;4.17;;;2.67;;
43319;SDS011;28914;48.722;9.332;2024-03-17T20:39:03;4.33;;;3.27;;
43319;SDS011;28914;48.722;9.332;2024-03-17T20:44:22;7.07;;;6.10;;
43319;SDS011;28914;48.722;9.332;2024-03-17T20:49:41;15.37;;;11.47;;
43319;SDS011;28914;48.722;9.332;2024-03-17T20:55:01;12.33;;;11.10;;
43319;SDS011;28914;48.722;9.332;2024-03-17T21:00:21;10.33;;;8.40;;
43319;SDS011;28914;48.722;9.332;2024-03-17T21:05:43;9.53;;;7.90;;
43319;SDS011;28914;48.722;9.332;2024-03-17T21:11:02;6.50;;;5.43;;
43319;SDS011;28914;48.722;9.332;2024-03-17T21:16:21;7.83;;;6.10;;
43319;SDS011;28914;48.722;9.332;2024-03-17T21:21:40;5.97;;;5.47;;
43319;SDS011;28914;48.722;9.332;2024-03-17T21:26:59;5.60;;;5.10;;
43319;SDS011;28914;48.722;9.332;2024-03-17T21:32:18;4.70;;;4.30;;
43319;SDS011;28914;48.722;9.332;2024-03-17T21:37:38;7.23;;;4.43;;
43319;SDS011;28914;48.722;9.332;2024-03-17T21:43:00;5.80;;;4.60;;
43319;SDS011;28914;48.722;9.332;2024-03-17T21:48:19;5.10;;;4.70;;
43319;SDS011;28914;48.722;9.332;2024-03-17T21:53:39;5.10;;;4.40;;
43319;SDS011;28914;48.722;9.332;2024-03-17T21:58:58;8.30;;;3.97;;
43319;SDS011;28914;48.722;9.332;2024-03-17T22:04:17;4.70;;;3.87;;
43319;SDS011;28914;48.722;9.332;2024-03-17T22:09:36;5.30;;;4.40;;
43319;SDS011;28914;48.722;9.332;2024-03-17T22:14:55;3.57;;;3.03;;
43319;SDS011;28914;48.722;9.332;2024-03-17T22:20:15;5.00;;;3.90;;
43319;SDS011;28914;48.722;9.332;2024-03-17T22:25:35;4.40;;;4.00;;
43319;SDS011;28914;48.722;9.332;2024-03-17T22:30:54;5.70;;;4.90;;
43319;SDS011;28914;48.722;9.332;2024-03-17T22:36:15;4.03;;;3.63;;
43319;SDS011;28914;48.722;9.332;2024-03-17T22:41:35;4.20;;;3.80;;
43319;SDS011;28914;48.722;9.332;2024-03-17T22:46:54;5.93;;;5.40;;
43319;SDS011;28914;48.722;9.332;2024-03-17T22:52:13;6.73;;;5.80;;
43319;SDS011;28914;48.722;9.332;2024-03-17T22:57:32;10.00;;;5.10;;
43319;SDS011;28914;48.722;9.332;2024-03-17T23:02:51;4.87;;;4.00;;
43319;SDS011;28914;48.722;9.332;2024-03-17T23:08:11;4.60;;;4.20;;
43319;SDS011;28914;48.722;9.332;2024-03-17T23:13:33;3.50;;;3.20;;
43319;SDS011;28914;48.722;9.332;2024-03-17T23:18:53;4.77;;;3.67;;
43319;SDS011;28914;48.722;9.332;2024-03-17T23:24:12;4.83;;;3.43;;
43319;SDS011;28914;48.722;9.332;2024-03-17T23:29:32;3.47;;;3.17;;
43319;SDS011;28914;48.722;9.332;2024-03-17T23:34:51;4.13;;;3.73;;
43319;SDS011;28914;48.722;9.332;2024-03-17T23:40:10;4.07;;;3.77;;
43319;SDS011;28914;48.722;9.332;2024-03-17T23:45:33;3.50;;;3.20;;
43319;SDS011;28914;48.722;9.332;2024-03-17T23:50:53;3.63;;;2.50;;
43319;SDS011;28914;48.722;9.332;2024-03-17T23:56:12;4.27;;;3.70;;
